createdAt,value
2022-08-28T00:01:21.397Z,5.35
2022-08-28T00:03:53.719Z,6.05
2022-08-28T00:06:26.183Z,6.07
2022-08-28T00:11:30.147Z,5.22
2022-08-28T00:14:04.371Z,4.57
2022-08-28T00:16:36.947Z,4.70
2022-08-28T00:19:11.342Z,5.07
2022-08-28T00:21:43.368Z,5.68
2022-08-28T00:24:16.249Z,5.40
2022-08-28T00:27:07.133Z,6.10
2022-08-28T00:29:39.072Z,6.03
2022-08-28T00:34:43.554Z,6.68
2022-08-28T00:37:16.613Z,6.60
2022-08-28T00:39:49.740Z,6.82
2022-08-28T00:42:21.729Z,6.95
2022-08-28T00:44:54.360Z,7.05
2022-08-28T00:47:26.604Z,7.30
2022-08-28T00:49:59.188Z,7.25
2022-08-28T00:52:31.014Z,5.70
2022-08-28T00:55:09.077Z,6.93
2022-08-28T00:57:49.201Z,7.72
2022-08-28T01:00:26.857Z,6.43
2022-08-28T01:02:59.710Z,7.00
2022-08-28T01:05:34.156Z,7.65
2022-08-28T01:08:06.776Z,7.05
2022-08-28T01:13:13.265Z,8.10
2022-08-28T01:15:46.756Z,7.07
2022-08-28T01:18:20.503Z,8.20
2022-08-28T01:21:05.888Z,7.37
2022-08-28T01:23:53.723Z,7.80
2022-08-28T01:26:28.627Z,7.35
2022-08-28T01:29:01.437Z,6.55
2022-08-28T01:31:35.104Z,7.72
2022-08-28T01:34:09.360Z,7.05
2022-08-28T01:36:43.080Z,7.80
2022-08-28T01:39:19.108Z,7.07
2022-08-28T01:41:54.963Z,7.38
2022-08-28T01:44:28.089Z,7.40
2022-08-28T01:47:00.650Z,7.18
2022-08-28T01:49:32.963Z,6.70
2022-08-28T01:52:04.862Z,7.30
2022-08-28T01:54:40.171Z,7.20
2022-08-28T01:57:12.642Z,7.63
2022-08-28T01:59:46.640Z,6.88
2022-08-28T02:02:18.464Z,7.10
2022-08-28T02:04:51.124Z,6.72
2022-08-28T02:07:23.572Z,7.10
2022-08-28T02:09:55.934Z,7.55
2022-08-28T02:12:28.647Z,7.70
2022-08-28T02:17:33.036Z,7.82
2022-08-28T02:20:07.205Z,7.63
2022-08-28T02:22:39.288Z,8.10
2022-08-28T02:25:13.039Z,7.18
2022-08-28T02:27:45.795Z,7.40
2022-08-28T02:30:18.881Z,7.60
2022-08-28T02:32:51.305Z,7.15
2022-08-28T02:35:24.497Z,6.30
2022-08-28T02:37:56.783Z,6.43
2022-08-28T02:40:30.085Z,7.68
2022-08-28T02:43:01.946Z,6.78
2022-08-28T02:48:17.009Z,7.25
2022-08-28T02:50:50.254Z,6.95
2022-08-28T02:55:56.034Z,6.88
2022-08-28T02:58:27.892Z,7.43
2022-08-28T03:01:02.162Z,6.97
2022-08-28T03:03:34.955Z,7.93
2022-08-28T03:06:08.997Z,7.22
2022-08-28T03:08:42.719Z,7.38
2022-08-28T03:11:14.800Z,7.82
2022-08-28T03:13:47.590Z,7.28
2022-08-28T03:18:52.652Z,6.93
2022-08-28T03:21:24.552Z,7.32
2022-08-28T03:23:57.168Z,7.07
2022-08-28T03:26:29.673Z,6.28
2022-08-28T03:29:02.323Z,7.40
2022-08-28T03:31:35.883Z,7.40
2022-08-28T03:34:09.230Z,7.18
2022-08-28T03:36:41.416Z,7.07
2022-08-28T03:39:14.334Z,6.80
2022-08-28T03:41:46.100Z,6.93
2022-08-28T03:44:18.946Z,7.40
2022-08-28T03:49:24.346Z,7.30
2022-08-28T03:54:31.492Z,7.60
2022-08-28T03:57:04.331Z,8.57
2022-08-28T04:02:08.613Z,7.93
2022-08-28T04:04:40.829Z,8.32
2022-08-28T04:07:12.920Z,8.00
2022-08-28T04:09:46.091Z,7.88
2022-08-28T04:12:19.072Z,8.02
2022-08-28T04:14:50.920Z,8.18
2022-08-28T04:17:23.751Z,7.50
2022-08-28T04:22:30.098Z,8.15
2022-08-28T04:25:02.025Z,7.45
2022-08-28T04:27:35.429Z,8.30
2022-08-28T04:30:09.699Z,8.80
2022-08-28T04:32:42.865Z,8.00
2022-08-28T04:35:17.133Z,7.57
2022-08-28T04:37:50.091Z,8.15
2022-08-28T04:40:22.773Z,8.38
2022-08-28T04:42:54.985Z,7.72
2022-08-28T04:45:27.211Z,7.90
2022-08-28T04:48:00.198Z,7.88
2022-08-28T04:50:36.762Z,7.72
2022-08-28T04:53:12.820Z,7.75
2022-08-28T04:55:54.243Z,7.90
2022-08-28T04:58:28.268Z,7.65
2022-08-28T05:01:12.764Z,7.63
2022-08-28T05:03:47.341Z,8.35
2022-08-28T05:06:19.235Z,7.38
2022-08-28T05:11:33.778Z,8.05
2022-08-28T05:14:15.966Z,8.40
2022-08-28T05:16:51.251Z,8.70
2022-08-28T05:19:26.243Z,8.95
2022-08-28T05:21:59.021Z,9.48
2022-08-28T05:24:31.692Z,9.25
2022-08-28T05:27:04.112Z,9.38
2022-08-28T05:32:09.390Z,7.75
2022-08-28T05:34:42.077Z,7.60
2022-08-28T05:37:19.069Z,7.65
2022-08-28T05:39:51.503Z,7.95
2022-08-28T05:42:24.122Z,8.65
2022-08-28T05:45:02.581Z,8.30
2022-08-28T05:47:36.108Z,8.10
2022-08-28T05:50:08.670Z,9.45
2022-08-28T05:52:43.048Z,7.78
2022-08-28T05:55:14.855Z,7.78
2022-08-28T05:57:47.469Z,7.97
2022-08-28T06:00:19.800Z,7.72
2022-08-28T06:02:51.555Z,7.57
2022-08-28T06:05:25.255Z,8.05
2022-08-28T06:07:58.040Z,8.70
2022-08-28T06:10:30.652Z,7.72
2022-08-28T06:13:03.222Z,7.22
2022-08-28T06:15:40.908Z,7.80
2022-08-28T06:18:14.458Z,8.05
2022-08-28T06:20:47.415Z,8.00
2022-08-28T06:23:24.049Z,7.93
2022-08-28T06:25:57.220Z,7.95
2022-08-28T06:28:29.015Z,7.45
2022-08-28T06:31:22.913Z,8.70
2022-08-28T06:33:58.844Z,8.15
2022-08-28T06:36:34.818Z,6.85
2022-08-28T06:39:07.140Z,8.73
2022-08-28T06:44:25.778Z,8.63
2022-08-28T06:46:58.100Z,8.52
2022-08-28T06:49:30.783Z,9.70
2022-08-28T06:54:35.487Z,9.52
2022-08-28T06:57:07.282Z,10.50
2022-08-28T06:59:40.740Z,9.45
2022-08-28T07:02:12.586Z,9.70
2022-08-28T07:07:31.796Z,10.20
2022-08-28T07:10:05.805Z,9.52
2022-08-28T07:12:37.635Z,9.45
2022-08-28T07:15:12.853Z,9.15
2022-08-28T07:17:45.513Z,10.15
2022-08-28T07:20:18.228Z,9.80
2022-08-28T07:22:54.045Z,10.10
2022-08-28T07:25:32.659Z,10.30
2022-08-28T07:28:04.829Z,9.90
2022-08-28T07:30:37.124Z,10.50
2022-08-28T07:33:08.922Z,10.25
2022-08-28T07:35:44.647Z,9.75
2022-08-28T07:38:17.073Z,9.25
2022-08-28T07:40:49.792Z,8.82
2022-08-28T07:46:13.256Z,8.18
2022-08-28T07:48:47.975Z,8.43
2022-08-28T07:51:20.768Z,7.57
2022-08-28T07:53:53.464Z,7.63
2022-08-28T07:56:29.972Z,7.40
2022-08-28T07:59:03.226Z,7.97
2022-08-28T08:01:42.208Z,7.00
2022-08-28T08:04:16.205Z,7.60
2022-08-28T08:06:54.383Z,6.32
2022-08-28T08:09:29.581Z,7.10
2022-08-28T08:12:02.318Z,6.40
2022-08-28T08:14:34.961Z,6.82
2022-08-28T08:17:07.645Z,6.45
2022-08-28T08:19:40.699Z,6.93
2022-08-28T08:22:12.953Z,7.22
2022-08-28T08:24:44.717Z,6.28
2022-08-28T08:27:17.836Z,7.07
2022-08-28T08:29:51.382Z,8.25
2022-08-28T08:32:23.671Z,9.90
2022-08-28T08:34:56.104Z,9.38
2022-08-28T08:37:28.661Z,10.40
2022-08-28T08:40:00.536Z,10.98
2022-08-28T08:42:35.063Z,10.10
2022-08-28T08:45:12.615Z,11.05
2022-08-28T08:47:54.340Z,11.07
2022-08-28T08:50:29.871Z,11.60
2022-08-28T08:54:04.575Z,11.27
2022-08-28T08:56:36.527Z,13.07
2022-08-28T08:59:16.158Z,11.57
2022-08-28T09:02:06.471Z,12.82
2022-08-28T09:04:48.424Z,11.80
2022-08-28T09:07:21.444Z,12.63
2022-08-28T09:09:55.986Z,13.02
2022-08-28T09:12:37.067Z,12.18
2022-08-28T09:15:20.809Z,11.67
2022-08-28T09:18:17.383Z,10.95
2022-08-28T09:20:55.204Z,9.45
2022-08-28T09:23:30.132Z,11.02
2022-08-28T09:26:10.621Z,10.27
2022-08-28T09:28:51.129Z,10.02
2022-08-28T09:31:36.109Z,8.90
2022-08-28T09:34:29.009Z,9.55
2022-08-28T09:37:01.865Z,9.30
2022-08-28T09:39:38.155Z,40.30
2022-08-28T09:42:41.773Z,8.95
2022-08-28T09:45:20.948Z,12.55
2022-08-28T09:47:56.238Z,9.70
2022-08-28T09:50:41.191Z,9.55
2022-08-28T09:53:15.876Z,8.27
2022-08-28T09:55:57.366Z,8.43
2022-08-28T09:58:43.837Z,8.65
2022-08-28T10:01:37.187Z,8.88
2022-08-28T10:04:20.139Z,7.95
2022-08-28T10:07:03.877Z,8.35
2022-08-28T10:10:02.539Z,8.95
2022-08-28T10:12:42.262Z,8.40
2022-08-28T10:15:51.760Z,8.60
2022-08-28T10:18:45.785Z,8.32
2022-08-28T10:21:50.686Z,8.43
2022-08-28T10:24:34.051Z,8.40
2022-08-28T10:27:20.248Z,9.25
2022-08-28T10:30:21.131Z,9.48
2022-08-28T10:33:20.647Z,9.73
2022-08-28T10:36:34.287Z,8.68
2022-08-28T10:39:33.173Z,8.77
2022-08-28T10:42:06.899Z,8.52
2022-08-28T10:44:54.144Z,7.63
2022-08-28T10:47:29.854Z,8.40
2022-08-28T10:50:12.399Z,7.95
2022-08-28T10:52:53.896Z,7.20
2022-08-28T10:55:36.589Z,7.93
2022-08-28T10:58:24.613Z,7.40
2022-08-28T11:01:03.692Z,8.10
2022-08-28T11:03:43.332Z,8.00
2022-08-28T11:06:27.038Z,7.70
2022-08-28T11:09:24.862Z,7.63
2022-08-28T11:12:17.070Z,7.80
2022-08-28T11:14:53.673Z,7.63
2022-08-28T11:17:28.032Z,7.63
2022-08-28T11:20:25.456Z,8.13
2022-08-28T11:23:10.556Z,7.90
2022-08-28T11:25:59.164Z,7.80
2022-08-28T11:28:42.568Z,7.07
2022-08-28T11:31:19.272Z,7.18
2022-08-28T11:34:03.036Z,7.20
2022-08-28T11:36:34.787Z,6.72
2022-08-28T11:39:21.011Z,7.18
2022-08-28T11:42:11.292Z,7.00
2022-08-28T11:44:46.352Z,7.43
2022-08-28T11:47:39.493Z,6.63
2022-08-28T11:50:32.826Z,6.93
2022-08-28T11:53:25.273Z,6.38
2022-08-28T11:56:03.946Z,6.18
2022-08-28T11:58:54.909Z,6.28
2022-08-28T12:01:32.056Z,5.83
2022-08-28T12:04:08.720Z,5.28
2022-08-28T12:06:51.448Z,4.35
2022-08-28T12:09:26.236Z,4.53
2022-08-28T12:12:03.690Z,4.38
2022-08-28T12:14:41.478Z,4.43
2022-08-28T12:17:29.152Z,4.70
2022-08-28T12:20:20.644Z,3.35
2022-08-28T12:22:58.751Z,4.53
2022-08-28T12:25:40.480Z,4.97
2022-08-28T12:28:25.022Z,5.47
2022-08-28T12:30:59.896Z,5.53
2022-08-28T12:33:47.716Z,5.30
2022-08-28T12:36:26.598Z,4.82
2022-08-28T12:38:59.344Z,4.40
2022-08-28T12:41:33.098Z,6.22
2022-08-28T12:44:09.385Z,5.22
2022-08-28T12:46:43.934Z,5.40
2022-08-28T12:49:35.035Z,5.23
2022-08-28T12:52:27.219Z,4.80
2022-08-28T12:55:00.018Z,5.50
2022-08-28T12:57:33.812Z,4.97
2022-08-28T13:00:10.695Z,5.45
2022-08-28T13:02:46.504Z,5.18
2022-08-28T13:05:32.393Z,4.68
2022-08-28T13:08:08.842Z,4.90
2022-08-28T13:10:47.622Z,5.70
2022-08-28T13:13:23.341Z,5.00
2022-08-28T13:16:01.482Z,5.30
2022-08-28T13:18:48.114Z,5.25
2022-08-28T13:21:30.782Z,4.70
2022-08-28T13:24:43.865Z,4.70
2022-08-28T13:27:15.764Z,4.35
2022-08-28T13:30:08.987Z,4.93
2022-08-28T13:32:41.012Z,4.00
2022-08-28T13:35:13.756Z,4.85
2022-08-28T13:37:48.105Z,4.60
2022-08-28T13:40:56.383Z,4.65
2022-08-28T13:43:17.819Z,4.50
2022-08-28T13:45:50.336Z,4.65
2022-08-28T13:48:25.988Z,4.50
2022-08-28T13:51:10.855Z,4.40
2022-08-28T13:53:46.564Z,4.28
2022-08-28T13:56:18.779Z,4.80
2022-08-28T13:58:57.309Z,4.63
2022-08-28T14:01:49.870Z,4.70
2022-08-28T14:04:22.806Z,4.20
2022-08-28T14:06:55.621Z,4.38
2022-08-28T14:09:27.916Z,4.40
2022-08-28T14:12:00.753Z,4.47
2022-08-28T14:14:33.135Z,4.50
2022-08-28T14:17:06.659Z,4.55
2022-08-28T14:19:38.714Z,4.07
2022-08-28T14:22:11.328Z,4.20
2022-08-28T14:24:43.607Z,4.50
2022-08-28T14:27:15.410Z,4.25
2022-08-28T14:29:49.499Z,3.97
2022-08-28T14:32:22.098Z,3.97
2022-08-28T14:34:54.783Z,4.60
2022-08-28T14:37:28.464Z,4.05
2022-08-28T14:40:01.333Z,4.07
2022-08-28T14:42:33.166Z,4.28
2022-08-28T14:45:06.304Z,3.60
2022-08-28T14:47:39.310Z,4.18
2022-08-28T14:50:12.595Z,3.65
2022-08-28T14:52:44.894Z,4.00
2022-08-28T14:55:23.339Z,4.38
2022-08-28T15:03:00.573Z,3.72
2022-08-28T15:05:34.394Z,4.20
2022-08-28T15:08:12.064Z,4.00
2022-08-28T15:10:45.198Z,3.92
2022-08-28T15:13:17.026Z,4.20
2022-08-28T15:15:50.249Z,3.67
2022-08-28T15:18:22.029Z,3.80
2022-08-28T15:20:54.717Z,4.32
2022-08-28T15:23:27.796Z,4.10
2022-08-28T15:25:59.765Z,4.43
2022-08-28T15:28:32.387Z,4.32
2022-08-28T15:31:05.097Z,4.80
2022-08-28T15:33:36.874Z,4.43
2022-08-28T15:36:10.173Z,4.43
2022-08-28T15:39:00.901Z,4.35
2022-08-28T15:41:33.095Z,4.03
2022-08-28T15:44:05.628Z,4.28
2022-08-28T15:46:38.263Z,4.63
2022-08-28T15:49:10.732Z,4.05
2022-08-28T15:51:43.389Z,4.07
2022-08-28T15:54:17.349Z,4.30
2022-08-28T15:56:50.698Z,4.70
2022-08-28T15:59:25.518Z,4.20
2022-08-28T16:02:20.090Z,4.35
2022-08-28T16:04:54.253Z,4.30
2022-08-28T16:07:26.208Z,6.00
2022-08-28T16:09:59.148Z,5.60
2022-08-28T16:12:32.933Z,5.10
2022-08-28T16:15:05.180Z,5.38
2022-08-28T16:17:37.140Z,4.80
2022-08-28T16:20:12.389Z,5.95
2022-08-28T16:22:45.992Z,4.90
2022-08-28T16:25:18.985Z,4.88
2022-08-28T16:27:50.758Z,4.78
2022-08-28T16:30:24.344Z,4.60
2022-08-28T16:32:57.029Z,4.40
2022-08-28T16:35:29.369Z,4.55
2022-08-28T16:38:02.421Z,4.25
2022-08-28T16:40:35.159Z,6.70
2022-08-28T16:43:06.973Z,4.63
2022-08-28T16:45:44.366Z,4.55
2022-08-28T16:48:16.361Z,4.63
2022-08-28T16:50:49.089Z,4.63
2022-08-28T16:53:24.421Z,4.32
2022-08-28T16:55:59.817Z,4.50
2022-08-28T17:01:06.080Z,4.10
2022-08-28T17:03:39.861Z,4.55
2022-08-28T17:06:16.671Z,4.28
2022-08-28T17:08:49.014Z,4.45
2022-08-28T17:11:27.955Z,4.40
2022-08-28T17:14:00.386Z,4.60
2022-08-28T17:16:33.308Z,4.80
2022-08-28T17:19:05.117Z,4.15
2022-08-28T17:21:56.169Z,7.22
2022-08-28T17:24:28.765Z,4.30
2022-08-28T17:27:05.389Z,4.20
2022-08-28T17:29:40.166Z,4.38
2022-08-28T17:32:14.555Z,4.38
2022-08-28T17:34:47.243Z,4.80
2022-08-28T17:37:20.858Z,4.25
2022-08-28T17:39:54.048Z,4.32
2022-08-28T17:42:26.479Z,3.97
2022-08-28T17:44:58.265Z,4.45
2022-08-28T17:47:32.720Z,4.55
2022-08-28T17:50:05.856Z,4.70
2022-08-28T17:52:38.711Z,4.15
2022-08-28T17:55:10.582Z,4.47
2022-08-28T17:57:43.181Z,4.47
2022-08-28T18:00:18.719Z,4.72
2022-08-28T18:02:51.986Z,4.90
2022-08-28T18:05:25.214Z,4.65
2022-08-28T18:07:57.823Z,4.93
2022-08-28T18:10:33.943Z,5.20
2022-08-28T18:13:06.535Z,4.90
2022-08-28T18:15:39.185Z,4.60
2022-08-28T18:18:15.354Z,5.03
2022-08-28T18:20:47.682Z,4.60
2022-08-28T18:23:19.471Z,4.63
2022-08-28T18:25:53.716Z,4.38
2022-08-28T18:28:26.650Z,5.40
2022-08-28T18:31:01.602Z,4.25
2022-08-28T18:33:35.685Z,4.18
2022-08-28T18:36:10.957Z,4.50
2022-08-28T18:43:56.417Z,4.90
2022-08-28T18:46:31.449Z,4.72
2022-08-28T18:49:04.058Z,4.72
2022-08-28T18:51:37.050Z,4.63
2022-08-28T18:54:09.489Z,4.68
2022-08-28T18:56:42.509Z,4.60
2022-08-28T18:59:15.578Z,5.28
2022-08-28T19:01:48.410Z,4.70
2022-08-28T19:04:20.233Z,4.20
2022-08-28T19:06:52.898Z,4.25
2022-08-28T19:09:31.714Z,4.65
2022-08-28T19:12:06.041Z,4.88
2022-08-28T19:14:38.588Z,4.57
2022-08-28T19:17:10.900Z,4.70
2022-08-28T19:19:43.869Z,5.05
2022-08-28T19:22:16.446Z,4.97
2022-08-28T19:24:49.848Z,4.80
2022-08-28T19:27:23.199Z,5.55
2022-08-28T19:29:55.456Z,4.95
2022-08-28T19:32:27.309Z,4.57
2022-08-28T19:35:03.667Z,4.70
2022-08-28T19:37:38.722Z,5.50
2022-08-28T19:40:14.050Z,5.28
2022-08-28T19:42:46.265Z,6.25
2022-08-28T19:45:19.230Z,5.20
2022-08-28T19:47:52.265Z,5.50
2022-08-28T19:50:24.983Z,4.57
2022-08-28T19:52:56.799Z,4.90
2022-08-28T19:55:29.705Z,5.30
2022-08-28T19:58:05.224Z,5.57
2022-08-28T20:00:38.000Z,4.88
2022-08-28T20:03:10.226Z,4.50
2022-08-28T20:08:15.303Z,4.90
2022-08-28T20:10:47.593Z,4.60
2022-08-28T20:13:19.482Z,5.68
2022-08-28T20:15:55.626Z,4.80
2022-08-28T20:18:27.943Z,4.88
2022-08-28T20:21:00.621Z,5.30
2022-08-28T20:23:32.796Z,5.03
2022-08-28T20:26:05.960Z,4.93
2022-08-28T20:28:37.937Z,5.18
2022-08-28T20:31:14.333Z,4.88
2022-08-28T20:33:47.906Z,4.93
2022-08-28T20:36:22.240Z,4.65
2022-08-28T20:41:43.986Z,4.70
2022-08-28T20:44:23.126Z,5.00
2022-08-28T20:49:34.258Z,5.20
2022-08-28T20:52:11.184Z,4.90
2022-08-28T20:57:20.056Z,4.65
2022-08-28T20:59:54.054Z,5.22
2022-08-28T21:03:06.925Z,4.50
2022-08-28T21:05:47.694Z,4.88
2022-08-28T21:08:21.919Z,4.63
2022-08-28T21:13:26.768Z,5.30
2022-08-28T21:15:59.403Z,4.90
2022-08-28T21:21:07.473Z,5.10
2022-08-28T21:23:42.153Z,4.65
2022-08-28T21:26:15.290Z,4.65
2022-08-28T21:28:47.752Z,4.90
2022-08-28T21:31:21.157Z,4.70
2022-08-28T21:33:54.013Z,5.13
2022-08-28T21:36:26.472Z,4.53
2022-08-28T21:38:59.159Z,4.47
2022-08-28T21:44:04.541Z,4.43
2022-08-28T21:46:37.371Z,4.50
2022-08-28T21:49:09.326Z,4.88
2022-08-28T21:51:42.031Z,4.50
2022-08-28T21:56:46.301Z,4.45
2022-08-28T21:59:20.899Z,4.53
2022-08-28T22:01:55.838Z,4.95
2022-08-28T22:07:14.643Z,4.80
2022-08-28T22:09:47.385Z,4.50
2022-08-28T22:12:19.595Z,4.78
2022-08-28T22:17:24.099Z,4.30
2022-08-28T22:22:46.443Z,4.63
2022-08-28T22:25:19.067Z,4.43
2022-08-28T22:27:50.996Z,4.43
2022-08-28T22:32:56.421Z,4.35
2022-08-28T22:35:29.914Z,4.68
2022-08-28T22:38:02.111Z,4.75
2022-08-28T22:43:07.085Z,4.15
2022-08-28T22:45:40.046Z,4.85
2022-08-28T22:48:16.509Z,4.27
2022-08-28T22:50:50.137Z,4.43
2022-08-28T22:53:22.648Z,4.30
2022-08-28T22:58:29.299Z,4.45
2022-08-28T23:01:23.988Z,4.40
2022-08-28T23:03:56.142Z,3.97
2022-08-28T23:06:32.661Z,4.47
2022-08-28T23:09:04.929Z,4.30
2022-08-28T23:11:37.850Z,4.40
2022-08-28T23:14:09.671Z,4.60
2022-08-28T23:19:15.053Z,4.65
2022-08-28T23:21:47.948Z,4.43
2022-08-28T23:24:20.353Z,4.72
2022-08-28T23:26:52.180Z,4.50
2022-08-28T23:29:24.878Z,4.30
2022-08-28T23:34:30.744Z,4.38
2022-08-28T23:37:03.054Z,4.53
2022-08-28T23:42:07.766Z,4.70
2022-08-28T23:44:40.381Z,4.70
2022-08-28T23:49:45.001Z,4.50
2022-08-28T23:54:49.328Z,4.22
2022-08-28T23:59:54.038Z,4.45
